sensor_id;sensor_type;location;lat;lon;timestamp;P1;durP1;ratioP1;P2;durP2;ratioP2
21677;SDS011;11000;50.360;7.582;2022-10-17T00:00:30;7.53;;;4.73;;
21677;SDS011;11000;50.360;7.582;2022-10-17T00:02:53;10.57;;;5.60;;
21677;SDS011;11000;50.360;7.582;2022-10-17T00:05:14;10.60;;;5.03;;
21677;SDS011;11000;50.360;7.582;2022-10-17T00:07:35;7.27;;;5.10;;
21677;SDS011;11000;50.360;7.582;2022-10-17T00:09:55;15.20;;;5.50;;
21677;SDS011;11000;50.360;7.582;2022-10-17T00:12:16;6.43;;;4.53;;
21677;SDS011;11000;50.360;7.582;2022-10-17T00:14:36;5.77;;;4.60;;
21677;SDS011;11000;50.360;7.582;2022-10-17T00:16:58;8.50;;;4.63;;
21677;SDS011;11000;50.360;7.582;2022-10-17T00:19:18;5.13;;;4.33;;
21677;SDS011;11000;50.360;7.582;2022-10-17T00:21:39;8.97;;;4.70;;
21677;SDS011;11000;50.360;7.582;2022-10-17T00:23:59;10.73;;;5.00;;
21677;SDS011;11000;50.360;7.582;2022-10-17T00:26:20;6.20;;;4.70;;
21677;SDS011;11000;50.360;7.582;2022-10-17T00:28:41;9.47;;;4.50;;
21677;SDS011;11000;50.360;7.582;2022-10-17T00:31:05;8.10;;;5.27;;
21677;SDS011;11000;50.360;7.582;2022-10-17T00:33:26;10.30;;;4.50;;
21677;SDS011;11000;50.360;7.582;2022-10-17T00:35:48;11.00;;;5.30;;
21677;SDS011;11000;50.360;7.582;2022-10-17T00:38:08;8.57;;;4.47;;
21677;SDS011;11000;50.360;7.582;2022-10-17T00:40:29;5.03;;;4.20;;
21677;SDS011;11000;50.360;7.582;2022-10-17T00:42:49;7.40;;;4.30;;
21677;SDS011;11000;50.360;7.582;2022-10-17T00:45:17;6.67;;;5.07;;
21677;SDS011;11000;50.360;7.582;2022-10-17T00:47:40;7.43;;;4.37;;
21677;SDS011;11000;50.360;7.582;2022-10-17T00:50:04;7.67;;;4.57;;
21677;SDS011;11000;50.360;7.582;2022-10-17T00:52:26;7.33;;;4.03;;
21677;SDS011;11000;50.360;7.582;2022-10-17T00:54:53;5.33;;;4.30;;
21677;SDS011;11000;50.360;7.582;2022-10-17T00:57:19;4.57;;;4.13;;
21677;SDS011;11000;50.360;7.582;2022-10-17T00:59:40;6.60;;;4.60;;
21677;SDS011;11000;50.360;7.582;2022-10-17T01:04:35;5.60;;;4.53;;
21677;SDS011;11000;50.360;7.582;2022-10-17T01:06:56;4.87;;;4.07;;
21677;SDS011;11000;50.360;7.582;2022-10-17T01:09:17;6.87;;;4.47;;
21677;SDS011;11000;50.360;7.582;2022-10-17T01:14:05;6.10;;;4.07;;
21677;SDS011;11000;50.360;7.582;2022-10-17T01:16:42;4.73;;;4.10;;
21677;SDS011;11000;50.360;7.582;2022-10-17T01:21:47;5.20;;;4.53;;
21677;SDS011;11000;50.360;7.582;2022-10-17T01:27:19;7.93;;;4.07;;
21677;SDS011;11000;50.360;7.582;2022-10-17T01:33:02;4.73;;;4.23;;
21677;SDS011;11000;50.360;7.582;2022-10-17T01:40:23;6.13;;;3.90;;
21677;SDS011;11000;50.360;7.582;2022-10-17T01:42:54;5.77;;;3.80;;
21677;SDS011;11000;50.360;7.582;2022-10-17T01:45:26;4.70;;;4.30;;
21677;SDS011;11000;50.360;7.582;2022-10-17T01:47:52;4.40;;;3.83;;
21677;SDS011;11000;50.360;7.582;2022-10-17T01:50:17;5.60;;;4.27;;
21677;SDS011;11000;50.360;7.582;2022-10-17T01:52:44;4.20;;;3.80;;
21677;SDS011;11000;50.360;7.582;2022-10-17T01:55:10;4.47;;;4.07;;
21677;SDS011;11000;50.360;7.582;2022-10-17T01:57:43;4.60;;;3.80;;
21677;SDS011;11000;50.360;7.582;2022-10-17T02:00:10;4.20;;;3.80;;
21677;SDS011;11000;50.360;7.582;2022-10-17T02:02:34;4.53;;;3.87;;
21677;SDS011;11000;50.360;7.582;2022-10-17T02:04:56;6.13;;;3.77;;
21677;SDS011;11000;50.360;7.582;2022-10-17T02:07:17;4.80;;;3.97;;
21677;SDS011;11000;50.360;7.582;2022-10-17T02:09:37;6.93;;;4.03;;
21677;SDS011;11000;50.360;7.582;2022-10-17T02:17:04;4.53;;;3.43;;
21677;SDS011;11000;50.360;7.582;2022-10-17T02:22:29;5.50;;;3.37;;
21677;SDS011;11000;50.360;7.582;2022-10-17T02:25:01;5.03;;;3.83;;
21677;SDS011;11000;50.360;7.582;2022-10-17T02:30:14;4.03;;;3.30;;
21677;SDS011;11000;50.360;7.582;2022-10-17T02:35:09;6.30;;;3.40;;
21677;SDS011;11000;50.360;7.582;2022-10-17T02:37:33;3.67;;;3.43;;
21677;SDS011;11000;50.360;7.582;2022-10-17T02:39:55;3.50;;;3.20;;
21677;SDS011;11000;50.360;7.582;2022-10-17T02:42:18;5.07;;;3.37;;
21677;SDS011;11000;50.360;7.582;2022-10-17T02:44:40;4.00;;;3.70;;
21677;SDS011;11000;50.360;7.582;2022-10-17T02:50:10;3.70;;;3.40;;
21677;SDS011;11000;50.360;7.582;2022-10-17T02:55:33;3.50;;;3.20;;
21677;SDS011;11000;50.360;7.582;2022-10-17T02:57:59;3.80;;;3.50;;
21677;SDS011;11000;50.360;7.582;2022-10-17T03:00:25;5.00;;;3.67;;
21677;SDS011;11000;50.360;7.582;2022-10-17T03:02:51;4.40;;;3.50;;
21677;SDS011;11000;50.360;7.582;2022-10-17T03:05:14;4.77;;;3.40;;
21677;SDS011;11000;50.360;7.582;2022-10-17T03:07:37;3.73;;;3.43;;
21677;SDS011;11000;50.360;7.582;2022-10-17T03:09:57;4.47;;;4.00;;
21677;SDS011;11000;50.360;7.582;2022-10-17T03:12:18;4.60;;;3.57;;
21677;SDS011;11000;50.360;7.582;2022-10-17T03:14:38;3.70;;;3.40;;
21677;SDS011;11000;50.360;7.582;2022-10-17T03:16:59;5.90;;;3.50;;
21677;SDS011;11000;50.360;7.582;2022-10-17T03:19:19;4.90;;;3.77;;
21677;SDS011;11000;50.360;7.582;2022-10-17T03:21:40;5.53;;;3.73;;
21677;SDS011;11000;50.360;7.582;2022-10-17T03:24:01;4.50;;;3.67;;
21677;SDS011;11000;50.360;7.582;2022-10-17T03:26:21;4.77;;;3.60;;
21677;SDS011;11000;50.360;7.582;2022-10-17T03:28:42;4.33;;;3.83;;
21677;SDS011;11000;50.360;7.582;2022-10-17T03:31:09;4.80;;;3.60;;
21677;SDS011;11000;50.360;7.582;2022-10-17T03:33:33;7.13;;;4.13;;
21677;SDS011;11000;50.360;7.582;2022-10-17T03:35:54;4.23;;;3.60;;
21677;SDS011;11000;50.360;7.582;2022-10-17T03:38:15;3.90;;;3.60;;
21677;SDS011;11000;50.360;7.582;2022-10-17T03:40:35;4.03;;;3.73;;
21677;SDS011;11000;50.360;7.582;2022-10-17T03:42:56;4.87;;;3.70;;
21677;SDS011;11000;50.360;7.582;2022-10-17T03:45:16;4.27;;;3.33;;
21677;SDS011;11000;50.360;7.582;2022-10-17T03:47:37;4.17;;;3.77;;
21677;SDS011;11000;50.360;7.582;2022-10-17T03:49:57;6.27;;;4.10;;
21677;SDS011;11000;50.360;7.582;2022-10-17T03:52:18;4.10;;;3.57;;
21677;SDS011;11000;50.360;7.582;2022-10-17T03:54:38;4.80;;;4.40;;
21677;SDS011;11000;50.360;7.582;2022-10-17T03:56:59;3.90;;;3.60;;
21677;SDS011;11000;50.360;7.582;2022-10-17T03:59:19;6.17;;;3.67;;
21677;SDS011;11000;50.360;7.582;2022-10-17T04:01:40;6.90;;;3.67;;
21677;SDS011;11000;50.360;7.582;2022-10-17T04:04:01;5.83;;;3.40;;
21677;SDS011;11000;50.360;7.582;2022-10-17T04:06:22;3.87;;;3.47;;
21677;SDS011;11000;50.360;7.582;2022-10-17T04:08:42;4.20;;;3.80;;
21677;SDS011;11000;50.360;7.582;2022-10-17T04:11:04;4.00;;;3.50;;
21677;SDS011;11000;50.360;7.582;2022-10-17T04:13:26;4.20;;;3.60;;
21677;SDS011;11000;50.360;7.582;2022-10-17T04:15:57;5.30;;;3.60;;
21677;SDS011;11000;50.360;7.582;2022-10-17T04:18:19;5.20;;;3.57;;
21677;SDS011;11000;50.360;7.582;2022-10-17T04:20:40;4.03;;;3.70;;
21677;SDS011;11000;50.360;7.582;2022-10-17T04:23:00;4.07;;;3.60;;
21677;SDS011;11000;50.360;7.582;2022-10-17T04:25:21;4.03;;;3.40;;
21677;SDS011;11000;50.360;7.582;2022-10-17T04:27:41;4.10;;;3.60;;
21677;SDS011;11000;50.360;7.582;2022-10-17T04:30:02;3.87;;;3.50;;
21677;SDS011;11000;50.360;7.582;2022-10-17T04:32:24;4.27;;;3.73;;
21677;SDS011;11000;50.360;7.582;2022-10-17T04:34:47;7.37;;;3.50;;
21677;SDS011;11000;50.360;7.582;2022-10-17T04:37:09;4.63;;;3.40;;
21677;SDS011;11000;50.360;7.582;2022-10-17T04:39:29;3.50;;;3.20;;
21677;SDS011;11000;50.360;7.582;2022-10-17T04:41:50;3.57;;;3.27;;
21677;SDS011;11000;50.360;7.582;2022-10-17T04:44:10;3.23;;;2.93;;
21677;SDS011;11000;50.360;7.582;2022-10-17T04:46:32;3.67;;;3.37;;
21677;SDS011;11000;50.360;7.582;2022-10-17T04:48:53;5.30;;;3.80;;
21677;SDS011;11000;50.360;7.582;2022-10-17T04:51:15;3.67;;;3.37;;
21677;SDS011;11000;50.360;7.582;2022-10-17T04:53:37;5.20;;;3.50;;
21677;SDS011;11000;50.360;7.582;2022-10-17T04:55:58;5.50;;;3.60;;
21677;SDS011;11000;50.360;7.582;2022-10-17T04:58:19;5.07;;;3.23;;
21677;SDS011;11000;50.360;7.582;2022-10-17T05:00:42;6.00;;;3.20;;
21677;SDS011;11000;50.360;7.582;2022-10-17T05:03:03;3.97;;;3.10;;
21677;SDS011;11000;50.360;7.582;2022-10-17T05:05:24;7.90;;;3.17;;
21677;SDS011;11000;50.360;7.582;2022-10-17T05:07:44;4.30;;;2.90;;
21677;SDS011;11000;50.360;7.582;2022-10-17T05:10:05;3.63;;;3.03;;
21677;SDS011;11000;50.360;7.582;2022-10-17T05:12:26;4.67;;;3.10;;
21677;SDS011;11000;50.360;7.582;2022-10-17T05:14:47;5.97;;;3.70;;
21677;SDS011;11000;50.360;7.582;2022-10-17T05:17:07;3.67;;;3.07;;
21677;SDS011;11000;50.360;7.582;2022-10-17T05:19:28;3.87;;;3.10;;
21677;SDS011;11000;50.360;7.582;2022-10-17T05:21:48;10.17;;;3.57;;
21677;SDS011;11000;50.360;7.582;2022-10-17T05:24:10;4.77;;;3.40;;
21677;SDS011;11000;50.360;7.582;2022-10-17T05:26:32;4.27;;;3.87;;
21677;SDS011;11000;50.360;7.582;2022-10-17T05:28:52;6.33;;;3.20;;
21677;SDS011;11000;50.360;7.582;2022-10-17T05:31:13;5.17;;;3.60;;
21677;SDS011;11000;50.360;7.582;2022-10-17T05:33:34;7.03;;;3.80;;
21677;SDS011;11000;50.360;7.582;2022-10-17T05:35:56;6.63;;;3.70;;
21677;SDS011;11000;50.360;7.582;2022-10-17T05:38:17;5.70;;;3.77;;
21677;SDS011;11000;50.360;7.582;2022-10-17T05:40:37;4.23;;;3.60;;
21677;SDS011;11000;50.360;7.582;2022-10-17T05:42:58;4.50;;;3.40;;
21677;SDS011;11000;50.360;7.582;2022-10-17T05:45:19;4.53;;;3.53;;
21677;SDS011;11000;50.360;7.582;2022-10-17T05:47:39;4.80;;;3.63;;
21677;SDS011;11000;50.360;7.582;2022-10-17T05:50:00;6.80;;;3.47;;
21677;SDS011;11000;50.360;7.582;2022-10-17T05:52:20;5.03;;;3.50;;
21677;SDS011;11000;50.360;7.582;2022-10-17T05:54:41;5.13;;;3.47;;
21677;SDS011;11000;50.360;7.582;2022-10-17T05:57:02;4.93;;;3.57;;
21677;SDS011;11000;50.360;7.582;2022-10-17T05:59:25;5.37;;;3.43;;
21677;SDS011;11000;50.360;7.582;2022-10-17T06:01:46;4.43;;;3.70;;
21677;SDS011;11000;50.360;7.582;2022-10-17T06:04:07;4.53;;;3.57;;
21677;SDS011;11000;50.360;7.582;2022-10-17T06:06:27;4.20;;;3.73;;
21677;SDS011;11000;50.360;7.582;2022-10-17T06:08:48;4.67;;;3.70;;
21677;SDS011;11000;50.360;7.582;2022-10-17T06:11:09;4.77;;;4.23;;
21677;SDS011;11000;50.360;7.582;2022-10-17T06:13:30;6.20;;;3.67;;
21677;SDS011;11000;50.360;7.582;2022-10-17T06:15:50;6.10;;;4.30;;
21677;SDS011;11000;50.360;7.582;2022-10-17T06:18:11;7.73;;;4.10;;
21677;SDS011;11000;50.360;7.582;2022-10-17T06:20:31;5.50;;;3.80;;
21677;SDS011;11000;50.360;7.582;2022-10-17T06:22:52;8.27;;;3.80;;
21677;SDS011;11000;50.360;7.582;2022-10-17T06:25:12;4.77;;;3.83;;
21677;SDS011;11000;50.360;7.582;2022-10-17T06:27:33;8.20;;;3.77;;
21677;SDS011;11000;50.360;7.582;2022-10-17T06:29:54;5.10;;;3.97;;
21677;SDS011;11000;50.360;7.582;2022-10-17T06:32:14;5.97;;;3.53;;
21677;SDS011;11000;50.360;7.582;2022-10-17T06:34:35;5.17;;;3.97;;
21677;SDS011;11000;50.360;7.582;2022-10-17T06:36:56;10.10;;;4.03;;
21677;SDS011;11000;50.360;7.582;2022-10-17T06:39:16;7.40;;;4.10;;
21677;SDS011;11000;50.360;7.582;2022-10-17T06:41:37;9.13;;;3.53;;
21677;SDS011;11000;50.360;7.582;2022-10-17T06:43:59;4.93;;;4.50;;
21677;SDS011;11000;50.360;7.582;2022-10-17T06:46:20;5.20;;;4.07;;
21677;SDS011;11000;50.360;7.582;2022-10-17T06:48:41;4.47;;;3.77;;
21677;SDS011;11000;50.360;7.582;2022-10-17T06:51:02;4.17;;;3.77;;
21677;SDS011;11000;50.360;7.582;2022-10-17T06:53:23;6.60;;;4.07;;
21677;SDS011;11000;50.360;7.582;2022-10-17T06:55:50;6.87;;;5.00;;
21677;SDS011;11000;50.360;7.582;2022-10-17T06:58:12;4.97;;;4.40;;
21677;SDS011;11000;50.360;7.582;2022-10-17T07:00:33;5.77;;;4.40;;
21677;SDS011;11000;50.360;7.582;2022-10-17T07:02:53;4.67;;;4.27;;
21677;SDS011;11000;50.360;7.582;2022-10-17T07:05:14;5.10;;;4.10;;
21677;SDS011;11000;50.360;7.582;2022-10-17T07:07:35;5.40;;;4.37;;
21677;SDS011;11000;50.360;7.582;2022-10-17T07:09:55;6.30;;;4.53;;
21677;SDS011;11000;50.360;7.582;2022-10-17T07:12:16;7.37;;;4.20;;
21677;SDS011;11000;50.360;7.582;2022-10-17T07:14:36;4.43;;;3.97;;
21677;SDS011;11000;50.360;7.582;2022-10-17T07:16:57;8.97;;;4.33;;
21677;SDS011;11000;50.360;7.582;2022-10-17T07:19:18;6.47;;;3.83;;
21677;SDS011;11000;50.360;7.582;2022-10-17T07:21:39;4.00;;;3.40;;
21677;SDS011;11000;50.360;7.582;2022-10-17T07:23:59;3.93;;;3.53;;
21677;SDS011;11000;50.360;7.582;2022-10-17T07:26:20;4.20;;;3.57;;
21677;SDS011;11000;50.360;7.582;2022-10-17T07:28:41;3.87;;;3.13;;
21677;SDS011;11000;50.360;7.582;2022-10-17T07:31:04;3.23;;;2.93;;
21677;SDS011;11000;50.360;7.582;2022-10-17T07:33:25;3.67;;;3.23;;
21677;SDS011;11000;50.360;7.582;2022-10-17T07:35:46;3.80;;;3.40;;
21677;SDS011;11000;50.360;7.582;2022-10-17T07:38:06;6.97;;;3.40;;
21677;SDS011;11000;50.360;7.582;2022-10-17T07:40:27;7.90;;;3.87;;
21677;SDS011;11000;50.360;7.582;2022-10-17T07:42:47;5.60;;;3.20;;
21677;SDS011;11000;50.360;7.582;2022-10-17T07:45:08;3.97;;;3.57;;
21677;SDS011;11000;50.360;7.582;2022-10-17T07:47:28;3.57;;;3.23;;
21677;SDS011;11000;50.360;7.582;2022-10-17T07:49:50;4.33;;;2.90;;
21677;SDS011;11000;50.360;7.582;2022-10-17T07:52:13;5.23;;;3.40;;
21677;SDS011;11000;50.360;7.582;2022-10-17T07:54:35;4.10;;;3.10;;
21677;SDS011;11000;50.360;7.582;2022-10-17T07:56:55;3.63;;;3.33;;
21677;SDS011;11000;50.360;7.582;2022-10-17T07:59:17;3.77;;;3.47;;
21677;SDS011;11000;50.360;7.582;2022-10-17T08:01:38;3.53;;;3.27;;
21677;SDS011;11000;50.360;7.582;2022-10-17T08:03:58;3.83;;;3.30;;
21677;SDS011;11000;50.360;7.582;2022-10-17T08:06:19;5.93;;;3.30;;
21677;SDS011;11000;50.360;7.582;2022-10-17T08:08:40;5.40;;;3.17;;
21677;SDS011;11000;50.360;7.582;2022-10-17T08:11:02;6.63;;;3.47;;
21677;SDS011;11000;50.360;7.582;2022-10-17T08:13:24;4.33;;;3.43;;
21677;SDS011;11000;50.360;7.582;2022-10-17T08:15:45;3.67;;;3.27;;
21677;SDS011;11000;50.360;7.582;2022-10-17T08:18:06;4.10;;;3.70;;
21677;SDS011;11000;50.360;7.582;2022-10-17T08:20:27;5.97;;;3.43;;
21677;SDS011;11000;50.360;7.582;2022-10-17T08:22:51;5.10;;;3.23;;
21677;SDS011;11000;50.360;7.582;2022-10-17T08:25:15;4.17;;;3.53;;
21677;SDS011;11000;50.360;7.582;2022-10-17T08:27:35;5.00;;;3.60;;
21677;SDS011;11000;50.360;7.582;2022-10-17T08:29:56;6.73;;;3.80;;
21677;SDS011;11000;50.360;7.582;2022-10-17T08:32:17;10.93;;;4.30;;
21677;SDS011;11000;50.360;7.582;2022-10-17T08:34:38;4.93;;;3.87;;
21677;SDS011;11000;50.360;7.582;2022-10-17T08:36:59;7.73;;;3.80;;
21677;SDS011;11000;50.360;7.582;2022-10-17T08:39:19;5.13;;;3.60;;
21677;SDS011;11000;50.360;7.582;2022-10-17T08:41:48;5.90;;;3.93;;
21677;SDS011;11000;50.360;7.582;2022-10-17T08:47:10;5.40;;;3.47;;
21677;SDS011;11000;50.360;7.582;2022-10-17T08:49:44;6.30;;;3.97;;
21677;SDS011;11000;50.360;7.582;2022-10-17T08:52:14;4.73;;;3.77;;
21677;SDS011;11000;50.360;7.582;2022-10-17T08:54:44;6.10;;;3.80;;
21677;SDS011;11000;50.360;7.582;2022-10-17T08:57:09;8.77;;;4.00;;
21677;SDS011;11000;50.360;7.582;2022-10-17T08:59:32;6.43;;;4.47;;
21677;SDS011;11000;50.360;7.582;2022-10-17T09:04:29;5.40;;;3.70;;
21677;SDS011;11000;50.360;7.582;2022-10-17T09:07:02;6.40;;;4.20;;
21677;SDS011;11000;50.360;7.582;2022-10-17T09:14:29;10.63;;;4.83;;
21677;SDS011;11000;50.360;7.582;2022-10-17T09:20:09;4.50;;;3.60;;
21677;SDS011;11000;50.360;7.582;2022-10-17T09:22:44;7.27;;;3.23;;
21677;SDS011;11000;50.360;7.582;2022-10-17T09:25:18;6.77;;;2.80;;
21677;SDS011;11000;50.360;7.582;2022-10-17T09:27:40;4.57;;;2.50;;
21677;SDS011;11000;50.360;7.582;2022-10-17T09:32:59;4.80;;;2.40;;
21677;SDS011;11000;50.360;7.582;2022-10-17T09:35:20;5.40;;;2.40;;
21677;SDS011;11000;50.360;7.582;2022-10-17T09:37:42;5.97;;;2.70;;
21677;SDS011;11000;50.360;7.582;2022-10-17T09:40:05;7.23;;;2.90;;
21677;SDS011;11000;50.360;7.582;2022-10-17T09:42:31;4.03;;;2.30;;
21677;SDS011;11000;50.360;7.582;2022-10-17T09:44:57;7.53;;;2.60;;
21677;SDS011;11000;50.360;7.582;2022-10-17T09:47:48;4.53;;;2.00;;
21677;SDS011;11000;50.360;7.582;2022-10-17T09:50:22;5.80;;;2.83;;
21677;SDS011;11000;50.360;7.582;2022-10-17T09:52:49;11.47;;;2.70;;
21677;SDS011;11000;50.360;7.582;2022-10-17T09:55:17;4.13;;;2.40;;
21677;SDS011;11000;50.360;7.582;2022-10-17T09:57:53;3.30;;;2.40;;
21677;SDS011;11000;50.360;7.582;2022-10-17T10:00:19;5.57;;;2.50;;
21677;SDS011;11000;50.360;7.582;2022-10-17T10:02:45;4.40;;;2.57;;
21677;SDS011;11000;50.360;7.582;2022-10-17T10:05:18;2.43;;;2.20;;
21677;SDS011;11000;50.360;7.582;2022-10-17T10:07:40;3.20;;;2.50;;
21677;SDS011;11000;50.360;7.582;2022-10-17T10:10:04;6.20;;;2.67;;
21677;SDS011;11000;50.360;7.582;2022-10-17T10:12:28;3.73;;;2.03;;
21677;SDS011;11000;50.360;7.582;2022-10-17T10:14:51;7.40;;;2.20;;
21677;SDS011;11000;50.360;7.582;2022-10-17T10:17:54;4.93;;;2.10;;
21677;SDS011;11000;50.360;7.582;2022-10-17T10:19:57;6.20;;;2.33;;
21677;SDS011;11000;50.360;7.582;2022-10-17T10:22:19;4.33;;;2.27;;
21677;SDS011;11000;50.360;7.582;2022-10-17T10:24:43;4.60;;;2.33;;
21677;SDS011;11000;50.360;7.582;2022-10-17T10:27:04;4.47;;;2.20;;
21677;SDS011;11000;50.360;7.582;2022-10-17T10:29:32;3.80;;;2.20;;
21677;SDS011;11000;50.360;7.582;2022-10-17T10:32:11;6.07;;;2.47;;
21677;SDS011;11000;50.360;7.582;2022-10-17T10:34:40;3.93;;;2.10;;
21677;SDS011;11000;50.360;7.582;2022-10-17T10:37:16;3.53;;;1.90;;
21677;SDS011;11000;50.360;7.582;2022-10-17T10:42:19;5.83;;;2.30;;
21677;SDS011;11000;50.360;7.582;2022-10-17T10:44:43;3.90;;;2.17;;
21677;SDS011;11000;50.360;7.582;2022-10-17T10:47:26;4.77;;;2.10;;
21677;SDS011;11000;50.360;7.582;2022-10-17T10:49:50;4.47;;;2.10;;
21677;SDS011;11000;50.360;7.582;2022-10-17T10:52:14;3.90;;;2.10;;
21677;SDS011;11000;50.360;7.582;2022-10-17T10:54:52;3.03;;;1.87;;
21677;SDS011;11000;50.360;7.582;2022-10-17T10:57:20;3.70;;;2.33;;
21677;SDS011;11000;50.360;7.582;2022-10-17T10:59:53;5.13;;;2.47;;
21677;SDS011;11000;50.360;7.582;2022-10-17T11:02:37;4.83;;;2.17;;
21677;SDS011;11000;50.360;7.582;2022-10-17T11:07:31;5.17;;;1.90;;
21677;SDS011;11000;50.360;7.582;2022-10-17T11:13:02;5.13;;;2.40;;
21677;SDS011;11000;50.360;7.582;2022-10-17T11:15:41;3.30;;;2.30;;
21677;SDS011;11000;50.360;7.582;2022-10-17T11:18:10;6.60;;;2.47;;
21677;SDS011;11000;50.360;7.582;2022-10-17T11:23:39;5.67;;;2.40;;
21677;SDS011;11000;50.360;7.582;2022-10-17T11:26:07;4.30;;;2.40;;
21677;SDS011;11000;50.360;7.582;2022-10-17T11:28:35;6.57;;;2.53;;
21677;SDS011;11000;50.360;7.582;2022-10-17T11:31:03;5.73;;;2.53;;
21677;SDS011;11000;50.360;7.582;2022-10-17T11:33:29;4.77;;;2.10;;
21677;SDS011;11000;50.360;7.582;2022-10-17T11:35:56;4.30;;;2.50;;
21677;SDS011;11000;50.360;7.582;2022-10-17T11:38:23;3.27;;;2.40;;
21677;SDS011;11000;50.360;7.582;2022-10-17T11:40:55;5.80;;;2.47;;
21677;SDS011;11000;50.360;7.582;2022-10-17T11:45:44;5.27;;;2.70;;
21677;SDS011;11000;50.360;7.582;2022-10-17T11:48:19;6.23;;;2.30;;
21677;SDS011;11000;50.360;7.582;2022-10-17T11:50:50;3.63;;;2.37;;
21677;SDS011;11000;50.360;7.582;2022-10-17T11:53:28;2.77;;;2.07;;
21677;SDS011;11000;50.360;7.582;2022-10-17T11:55:53;5.93;;;2.40;;
21677;SDS011;11000;50.360;7.582;2022-10-17T12:05:47;5.50;;;2.60;;
21677;SDS011;11000;50.360;7.582;2022-10-17T12:08:19;2.77;;;2.30;;
21677;SDS011;11000;50.360;7.582;2022-10-17T12:11:04;5.90;;;2.33;;
21677;SDS011;11000;50.360;7.582;2022-10-17T12:13:46;2.73;;;2.40;;
21677;SDS011;11000;50.360;7.582;2022-10-17T12:18:38;7.53;;;2.70;;
21677;SDS011;11000;50.360;7.582;2022-10-17T12:20:59;4.53;;;2.30;;
21677;SDS011;11000;50.360;7.582;2022-10-17T12:23:27;4.93;;;2.70;;
21677;SDS011;11000;50.360;7.582;2022-10-17T12:25:59;4.47;;;2.50;;
21677;SDS011;11000;50.360;7.582;2022-10-17T12:28:24;5.67;;;2.43;;
21677;SDS011;11000;50.360;7.582;2022-10-17T12:30:59;8.43;;;2.43;;
21677;SDS011;11000;50.360;7.582;2022-10-17T12:35:49;8.70;;;2.53;;
21677;SDS011;11000;50.360;7.582;2022-10-17T12:42:57;3.30;;;2.30;;
21677;SDS011;11000;50.360;7.582;2022-10-17T12:45:43;4.90;;;2.53;;
21677;SDS011;11000;50.360;7.582;2022-10-17T12:48:09;5.80;;;2.40;;
21677;SDS011;11000;50.360;7.582;2022-10-17T12:53:24;4.13;;;2.30;;
21677;SDS011;11000;50.360;7.582;2022-10-17T12:55:59;6.97;;;2.33;;
21677;SDS011;11000;50.360;7.582;2022-10-17T12:58:20;4.47;;;2.10;;
21677;SDS011;11000;50.360;7.582;2022-10-17T13:00:52;4.97;;;2.20;;
21677;SDS011;11000;50.360;7.582;2022-10-17T13:03:16;6.83;;;2.60;;
21677;SDS011;11000;50.360;7.582;2022-10-17T13:05:41;6.17;;;2.60;;
21677;SDS011;11000;50.360;7.582;2022-10-17T13:08:07;6.57;;;2.37;;
21677;SDS011;11000;50.360;7.582;2022-10-17T13:10:35;5.30;;;2.40;;
21677;SDS011;11000;50.360;7.582;2022-10-17T13:13:10;9.90;;;2.73;;
21677;SDS011;11000;50.360;7.582;2022-10-17T13:15:48;5.07;;;2.20;;
21677;SDS011;11000;50.360;7.582;2022-10-17T13:18:12;5.07;;;2.50;;
21677;SDS011;11000;50.360;7.582;2022-10-17T13:20:52;5.40;;;2.67;;
21677;SDS011;11000;50.360;7.582;2022-10-17T13:23:22;7.27;;;2.53;;
21677;SDS011;11000;50.360;7.582;2022-10-17T13:25:43;4.87;;;2.30;;
21677;SDS011;11000;50.360;7.582;2022-10-17T13:28:05;3.10;;;2.50;;
21677;SDS011;11000;50.360;7.582;2022-10-17T13:30:33;8.27;;;2.50;;
21677;SDS011;11000;50.360;7.582;2022-10-17T13:32:55;8.57;;;2.57;;
21677;SDS011;11000;50.360;7.582;2022-10-17T13:35:21;8.40;;;2.30;;
21677;SDS011;11000;50.360;7.582;2022-10-17T13:37:56;6.63;;;2.50;;
21677;SDS011;11000;50.360;7.582;2022-10-17T13:40:20;4.80;;;2.13;;
21677;SDS011;11000;50.360;7.582;2022-10-17T13:42:46;7.03;;;2.53;;
21677;SDS011;11000;50.360;7.582;2022-10-17T13:47:53;10.43;;;2.70;;
21677;SDS011;11000;50.360;7.582;2022-10-17T13:50:18;3.80;;;2.50;;
21677;SDS011;11000;50.360;7.582;2022-10-17T13:52:42;6.20;;;2.43;;
21677;SDS011;11000;50.360;7.582;2022-10-17T13:55:06;5.20;;;2.60;;
21677;SDS011;11000;50.360;7.582;2022-10-17T13:57:29;4.00;;;2.00;;
21677;SDS011;11000;50.360;7.582;2022-10-17T13:59:51;6.57;;;2.30;;
21677;SDS011;11000;50.360;7.582;2022-10-17T14:02:15;7.30;;;2.50;;
21677;SDS011;11000;50.360;7.582;2022-10-17T14:04:39;6.43;;;2.27;;
21677;SDS011;11000;50.360;7.582;2022-10-17T14:06:59;7.00;;;2.67;;
21677;SDS011;11000;50.360;7.582;2022-10-17T14:09:24;4.23;;;2.20;;
21677;SDS011;11000;50.360;7.582;2022-10-17T14:14:29;4.80;;;2.40;;
21677;SDS011;11000;50.360;7.582;2022-10-17T14:16:50;5.23;;;2.50;;
21677;SDS011;11000;50.360;7.582;2022-10-17T14:19:23;6.00;;;2.40;;
21677;SDS011;11000;50.360;7.582;2022-10-17T14:21:47;6.93;;;2.60;;
21677;SDS011;11000;50.360;7.582;2022-10-17T14:24:23;5.50;;;2.80;;
21677;SDS011;11000;50.360;7.582;2022-10-17T14:26:50;3.90;;;2.70;;
21677;SDS011;11000;50.360;7.582;2022-10-17T14:29:22;4.43;;;2.40;;
21677;SDS011;11000;50.360;7.582;2022-10-17T14:31:44;7.30;;;2.57;;
21677;SDS011;11000;50.360;7.582;2022-10-17T14:34:15;3.70;;;2.40;;
21677;SDS011;11000;50.360;7.582;2022-10-17T14:36:41;4.57;;;2.40;;
21677;SDS011;11000;50.360;7.582;2022-10-17T14:39:02;5.93;;;2.70;;
21677;SDS011;11000;50.360;7.582;2022-10-17T14:41:27;7.73;;;2.77;;
21677;SDS011;11000;50.360;7.582;2022-10-17T14:43:51;6.70;;;2.10;;
21677;SDS011;11000;50.360;7.582;2022-10-17T14:46:18;2.90;;;2.17;;
21677;SDS011;11000;50.360;7.582;2022-10-17T14:48:38;4.90;;;2.53;;
21677;SDS011;11000;50.360;7.582;2022-10-17T14:51:12;6.70;;;2.50;;
21677;SDS011;11000;50.360;7.582;2022-10-17T14:53:35;4.60;;;2.10;;
21677;SDS011;11000;50.360;7.582;2022-10-17T14:55:58;3.83;;;2.33;;
21677;SDS011;11000;50.360;7.582;2022-10-17T14:58:24;7.00;;;2.27;;
21677;SDS011;11000;50.360;7.582;2022-10-17T15:00:50;7.70;;;2.60;;
21677;SDS011;11000;50.360;7.582;2022-10-17T15:03:12;4.57;;;2.43;;
21677;SDS011;11000;50.360;7.582;2022-10-17T15:05:33;5.57;;;2.40;;
21677;SDS011;11000;50.360;7.582;2022-10-17T15:07:54;7.83;;;2.73;;
21677;SDS011;11000;50.360;7.582;2022-10-17T15:10:30;5.93;;;2.40;;
21677;SDS011;11000;50.360;7.582;2022-10-17T15:12:52;6.33;;;2.30;;
21677;SDS011;11000;50.360;7.582;2022-10-17T15:15:13;4.60;;;2.30;;
21677;SDS011;11000;50.360;7.582;2022-10-17T15:17:33;5.50;;;2.43;;
21677;SDS011;11000;50.360;7.582;2022-10-17T15:19:54;8.60;;;2.40;;
21677;SDS011;11000;50.360;7.582;2022-10-17T15:22:15;5.03;;;2.40;;
21677;SDS011;11000;50.360;7.582;2022-10-17T15:24:37;9.17;;;2.50;;
21677;SDS011;11000;50.360;7.582;2022-10-17T15:26:57;4.10;;;2.57;;
21677;SDS011;11000;50.360;7.582;2022-10-17T15:29:18;6.73;;;2.33;;
21677;SDS011;11000;50.360;7.582;2022-10-17T15:31:38;7.20;;;2.47;;
21677;SDS011;11000;50.360;7.582;2022-10-17T15:34:00;10.13;;;2.60;;
21677;SDS011;11000;50.360;7.582;2022-10-17T15:36:22;4.63;;;2.50;;
21677;SDS011;11000;50.360;7.582;2022-10-17T15:38:48;7.93;;;2.93;;
21677;SDS011;11000;50.360;7.582;2022-10-17T15:41:11;7.37;;;2.53;;
21677;SDS011;11000;50.360;7.582;2022-10-17T15:43:31;9.00;;;3.07;;
21677;SDS011;11000;50.360;7.582;2022-10-17T15:45:52;8.57;;;3.77;;
21677;SDS011;11000;50.360;7.582;2022-10-17T15:48:17;8.00;;;2.60;;
21677;SDS011;11000;50.360;7.582;2022-10-17T15:50:42;5.53;;;2.90;;
21677;SDS011;11000;50.360;7.582;2022-10-17T15:53:04;3.97;;;2.57;;
21677;SDS011;11000;50.360;7.582;2022-10-17T15:55:27;4.60;;;2.60;;
21677;SDS011;11000;50.360;7.582;2022-10-17T15:57:48;4.23;;;2.20;;
21677;SDS011;11000;50.360;7.582;2022-10-17T16:00:13;7.10;;;2.97;;
21677;SDS011;11000;50.360;7.582;2022-10-17T16:02:38;6.97;;;2.60;;